Wiggins, Colorado
Current Conditions -  °F | °C
As of 6:15 PM on Thursday 27 Nov 2014 (Local Time) from KFMM Reporting Station
Clear Clear  
Wind Chill: 34°   Ceiling: Unl
Heat Index: 40°   Visibility: 10mi
Dew Point: 28°   Wind: 9mph
Humidity: 62%   Direction: 260°W
Pressure: 30.08"   Gusts: NA
Location:  40.23°N, 104.07°W
Report Text: KFMM 280115Z AUTO 26008KT 10SM CLR 04/M02 A3008 RMK AO2 T00441023
Loading
Personal Weather Stations






























Interactive Weather Map New forecast layout! Learn more

10-Day Weather Forecast

Advertisements
Track Severe Weather on mobile